sensor_id;sensor_type;location;lat;lon;timestamp;pressure;altitude;pressure_sealevel;temperature;humidity
62995;BME280;49086;52.300;4.850;2022-08-19T00:00:53;53356.34;;;-146.41;100.00
62995;BME280;49086;52.300;4.850;2022-08-19T00:03:20;53364.31;;;-146.41;100.00
62995;BME280;49086;52.300;4.850;2022-08-19T00:06:02;53386.25;;;-146.41;100.00
62995;BME280;49086;52.300;4.850;2022-08-19T00:08:48;53386.25;;;-146.41;100.00
62995;BME280;49086;52.300;4.850;2022-08-19T00:11:22;53386.25;;;-146.41;100.00
62995;BME280;49086;52.300;4.850;2022-08-19T00:14:10;53400.19;;;-146.41;100.00
62995;BME280;49086;52.300;4.850;2022-08-19T00:16:44;53384.25;;;-146.41;100.00
62995;BME280;49086;52.300;4.850;2022-08-19T00:19:47;53350.38;;;-146.41;100.00
62995;BME280;49086;52.300;4.850;2022-08-19T00:22:34;53378.28;;;-146.41;100.00
62995;BME280;49086;52.300;4.850;2022-08-19T00:25:17;53382.25;;;-146.41;100.00
62995;BME280;49086;52.300;4.850;2022-08-19T00:27:50;53356.34;;;-146.41;100.00
62995;BME280;49086;52.300;4.850;2022-08-19T00:30:15;53396.22;;;-146.41;100.00
62995;BME280;49086;52.300;4.850;2022-08-19T00:33:04;53386.25;;;-146.41;100.00
62995;BME280;49086;52.300;4.850;2022-08-19T00:36:00;53362.31;;;-146.41;100.00
62995;BME280;49086;52.300;4.850;2022-08-19T00:38:27;53400.19;;;-146.41;100.00
62995;BME280;49086;52.300;4.850;2022-08-19T00:40:55;53388.25;;;-146.41;100.00
62995;BME280;49086;52.300;4.850;2022-08-19T00:43:43;53394.22;;;-146.41;100.00
62995;BME280;49086;52.300;4.850;2022-08-19T00:46:34;53344.38;;;-146.41;100.00
62995;BME280;49086;52.300;4.850;2022-08-19T00:49:43;53402.19;;;-146.41;100.00
62995;BME280;49086;52.300;4.850;2022-08-19T00:52:39;53386.25;;;-146.41;100.00
62995;BME280;49086;52.300;4.850;2022-08-19T00:55:23;53390.22;;;-146.41;100.00
62995;BME280;49086;52.300;4.850;2022-08-19T00:58:48;53394.22;;;-146.41;100.00
62995;BME280;49086;52.300;4.850;2022-08-19T01:01:26;53386.25;;;-146.41;100.00
62995;BME280;49086;52.300;4.850;2022-08-19T01:04:27;53410.16;;;-146.41;100.00
62995;BME280;49086;52.300;4.850;2022-08-19T01:06:58;53362.31;;;-146.41;100.00
62995;BME280;49086;52.300;4.850;2022-08-19T01:09:30;53364.31;;;-146.41;100.00
62995;BME280;49086;52.300;4.850;2022-08-19T01:12:03;53386.25;;;-146.41;100.00
62995;BME280;49086;52.300;4.850;2022-08-19T01:14:58;53384.25;;;-146.41;100.00
62995;BME280;49086;52.300;4.850;2022-08-19T01:18:08;53430.09;;;-146.41;100.00
62995;BME280;49086;52.300;4.850;2022-08-19T01:21:09;53400.19;;;-146.41;100.00
62995;BME280;49086;52.300;4.850;2022-08-19T01:23:51;53386.25;;;-146.41;100.00
62995;BME280;49086;52.300;4.850;2022-08-19T01:26:26;53412.16;;;-146.41;100.00
62995;BME280;49086;52.300;4.850;2022-08-19T01:29:08;53356.34;;;-146.41;100.00
62995;BME280;49086;52.300;4.850;2022-08-19T01:31:49;53374.28;;;-146.41;100.00
62995;BME280;49086;52.300;4.850;2022-08-19T01:34:19;53386.25;;;-146.41;100.00
62995;BME280;49086;52.300;4.850;2022-08-19T01:36:47;53426.13;;;-146.41;100.00
62995;BME280;49086;52.300;4.850;2022-08-19T01:39:20;53420.13;;;-146.41;100.00
62995;BME280;49086;52.300;4.850;2022-08-19T01:41:56;53398.22;;;-146.41;100.00
62995;BME280;49086;52.300;4.850;2022-08-19T01:44:55;53396.22;;;-146.41;100.00
62995;BME280;49086;52.300;4.850;2022-08-19T01:47:25;53392.22;;;-146.41;100.00
62995;BME280;49086;52.300;4.850;2022-08-19T01:49:51;53378.28;;;-146.41;100.00
62995;BME280;49086;52.300;4.850;2022-08-19T01:52:17;53400.19;;;-146.41;100.00
62995;BME280;49086;52.300;4.850;2022-08-19T01:54:45;53412.16;;;-146.41;100.00
62995;BME280;49086;52.300;4.850;2022-08-19T01:57:14;53420.13;;;-146.41;100.00
62995;BME280;49086;52.300;4.850;2022-08-19T01:59:45;53396.22;;;-146.41;100.00
62995;BME280;49086;52.300;4.850;2022-08-19T02:02:19;53402.19;;;-146.41;100.00
62995;BME280;49086;52.300;4.850;2022-08-19T02:04:45;53408.19;;;-146.41;100.00
62995;BME280;49086;52.300;4.850;2022-08-19T02:07:21;53404.19;;;-146.41;100.00
62995;BME280;49086;52.300;4.850;2022-08-19T02:09:48;53380.28;;;-146.41;100.00
62995;BME280;49086;52.300;4.850;2022-08-19T02:12:38;53380.28;;;-146.41;100.00
62995;BME280;49086;52.300;4.850;2022-08-19T02:15:28;53410.16;;;-146.41;100.00
62995;BME280;49086;52.300;4.850;2022-08-19T02:18:17;53414.16;;;-146.41;100.00
62995;BME280;49086;52.300;4.850;2022-08-19T02:20:59;53396.22;;;-146.41;100.00
62995;BME280;49086;52.300;4.850;2022-08-19T02:23:26;53376.28;;;-146.41;100.00
62995;BME280;49086;52.300;4.850;2022-08-19T02:26:28;53390.22;;;-146.41;100.00
62995;BME280;49086;52.300;4.850;2022-08-19T02:29:08;53398.22;;;-146.41;100.00
62995;BME280;49086;52.300;4.850;2022-08-19T02:31:45;53372.28;;;-146.41;100.00
62995;BME280;49086;52.300;4.850;2022-08-19T02:34:13;53402.19;;;-146.41;100.00
62995;BME280;49086;52.300;4.850;2022-08-19T02:37:15;53340.41;;;-146.41;100.00
62995;BME280;49086;52.300;4.850;2022-08-19T02:40:01;53396.22;;;-146.41;100.00
62995;BME280;49086;52.300;4.850;2022-08-19T02:42:31;53422.13;;;-146.41;100.00
62995;BME280;49086;52.300;4.850;2022-08-19T02:45:08;53406.19;;;-146.41;100.00
62995;BME280;49086;52.300;4.850;2022-08-19T02:48:03;53372.28;;;-146.41;100.00
62995;BME280;49086;52.300;4.850;2022-08-19T02:50:37;53406.19;;;-146.41;100.00
62995;BME280;49086;52.300;4.850;2022-08-19T02:53:27;53416.16;;;-146.41;100.00
62995;BME280;49086;52.300;4.850;2022-08-19T02:56:34;53430.09;;;-146.41;100.00
62995;BME280;49086;52.300;4.850;2022-08-19T02:59:46;53412.16;;;-146.41;100.00
62995;BME280;49086;52.300;4.850;2022-08-19T03:02:25;53360.34;;;-146.41;100.00
62995;BME280;49086;52.300;4.850;2022-08-19T03:05:25;53390.22;;;-146.41;100.00
62995;BME280;49086;52.300;4.850;2022-08-19T03:07:53;53406.19;;;-146.41;100.00
62995;BME280;49086;52.300;4.850;2022-08-19T03:10:46;53428.09;;;-146.41;100.00
62995;BME280;49086;52.300;4.850;2022-08-19T03:13:17;53410.16;;;-146.41;100.00
62995;BME280;49086;52.300;4.850;2022-08-19T03:16:10;53400.19;;;-146.41;100.00
62995;BME280;49086;52.300;4.850;2022-08-19T03:18:56;53418.16;;;-146.41;100.00
62995;BME280;49086;52.300;4.850;2022-08-19T03:22:07;53380.28;;;-146.41;100.00
62995;BME280;49086;52.300;4.850;2022-08-19T03:24:38;53372.28;;;-146.41;100.00
62995;BME280;49086;52.300;4.850;2022-08-19T03:27:32;53394.22;;;-146.41;100.00
62995;BME280;49086;52.300;4.850;2022-08-19T03:30:25;53398.22;;;-146.41;100.00
62995;BME280;49086;52.300;4.850;2022-08-19T03:32:55;53414.16;;;-146.41;100.00
62995;BME280;49086;52.300;4.850;2022-08-19T03:35:27;53418.16;;;-146.41;100.00
62995;BME280;49086;52.300;4.850;2022-08-19T03:38:00;53404.19;;;-146.41;100.00
62995;BME280;49086;52.300;4.850;2022-08-19T03:40:26;53408.19;;;-146.41;100.00
62995;BME280;49086;52.300;4.850;2022-08-19T03:42:53;53412.16;;;-146.41;100.00
62995;BME280;49086;52.300;4.850;2022-08-19T03:45:20;53420.13;;;-146.41;100.00
62995;BME280;49086;52.300;4.850;2022-08-19T03:47:45;53442.06;;;-146.41;100.00
62995;BME280;49086;52.300;4.850;2022-08-19T03:50:20;53434.09;;;-146.41;100.00
62995;BME280;49086;52.300;4.850;2022-08-19T03:52:55;53404.19;;;-146.41;100.00
62995;BME280;49086;52.300;4.850;2022-08-19T03:55:31;53402.19;;;-146.41;100.00
62995;BME280;49086;52.300;4.850;2022-08-19T03:58:23;53422.13;;;-146.41;100.00
62995;BME280;49086;52.300;4.850;2022-08-19T04:01:02;53410.16;;;-146.41;100.00
62995;BME280;49086;52.300;4.850;2022-08-19T04:03:55;53446.06;;;-146.41;100.00
62995;BME280;49086;52.300;4.850;2022-08-19T04:06:30;53422.13;;;-146.41;100.00
62995;BME280;49086;52.300;4.850;2022-08-19T04:08:58;53402.19;;;-146.41;100.00
62995;BME280;49086;52.300;4.850;2022-08-19T04:11:45;53402.19;;;-146.41;100.00
62995;BME280;49086;52.300;4.850;2022-08-19T04:14:48;53382.25;;;-146.41;100.00
62995;BME280;49086;52.300;4.850;2022-08-19T04:17:49;53422.13;;;-146.41;100.00
62995;BME280;49086;52.300;4.850;2022-08-19T04:20:18;53426.13;;;-146.41;100.00
62995;BME280;49086;52.300;4.850;2022-08-19T04:22:51;53408.19;;;-146.41;100.00
62995;BME280;49086;52.300;4.850;2022-08-19T04:25:49;53426.13;;;-146.41;100.00
62995;BME280;49086;52.300;4.850;2022-08-19T04:28:15;53404.19;;;-146.41;100.00
62995;BME280;49086;52.300;4.850;2022-08-19T04:31:03;53424.13;;;-146.41;100.00
62995;BME280;49086;52.300;4.850;2022-08-19T04:33:48;53394.22;;;-146.41;100.00
62995;BME280;49086;52.300;4.850;2022-08-19T04:36:29;53430.09;;;-146.41;100.00
62995;BME280;49086;52.300;4.850;2022-08-19T04:38:58;53416.16;;;-146.41;100.00
62995;BME280;49086;52.300;4.850;2022-08-19T04:41:27;53400.19;;;-146.41;100.00
62995;BME280;49086;52.300;4.850;2022-08-19T04:44:27;53473.97;;;-146.41;100.00
62995;BME280;49086;52.300;4.850;2022-08-19T04:47:15;53404.19;;;-146.41;100.00
62995;BME280;49086;52.300;4.850;2022-08-19T04:49:49;53422.13;;;-146.41;100.00
62995;BME280;49086;52.300;4.850;2022-08-19T04:52:17;53416.16;;;-146.41;100.00
62995;BME280;49086;52.300;4.850;2022-08-19T04:54:48;53388.25;;;-146.41;100.00
62995;BME280;49086;52.300;4.850;2022-08-19T04:57:35;53418.16;;;-146.41;100.00
62995;BME280;49086;52.300;4.850;2022-08-19T05:00:12;53388.25;;;-146.41;100.00
62995;BME280;49086;52.300;4.850;2022-08-19T05:02:40;53390.22;;;-146.41;100.00
62995;BME280;49086;52.300;4.850;2022-08-19T05:05:12;53388.25;;;-146.41;100.00
62995;BME280;49086;52.300;4.850;2022-08-19T05:07:39;53465.97;;;-146.41;100.00
62995;BME280;49086;52.300;4.850;2022-08-19T05:10:08;53400.19;;;-146.41;100.00
62995;BME280;49086;52.300;4.850;2022-08-19T05:12:57;53392.22;;;-146.41;100.00
62995;BME280;49086;52.300;4.850;2022-08-19T05:15:24;53432.09;;;-146.41;100.00
62995;BME280;49086;52.300;4.850;2022-08-19T05:18:06;53410.16;;;-146.41;100.00
62995;BME280;49086;52.300;4.850;2022-08-19T05:20:57;53410.16;;;-146.41;100.00
62995;BME280;49086;52.300;4.850;2022-08-19T05:23:50;53434.09;;;-146.41;100.00
62995;BME280;49086;52.300;4.850;2022-08-19T05:26:16;53392.22;;;-146.41;100.00
62995;BME280;49086;52.300;4.850;2022-08-19T05:28:42;53378.28;;;-146.41;100.00
62995;BME280;49086;52.300;4.850;2022-08-19T05:31:28;53376.28;;;-146.41;100.00
62995;BME280;49086;52.300;4.850;2022-08-19T05:33:59;53384.25;;;-146.41;100.00
62995;BME280;49086;52.300;4.850;2022-08-19T05:36:42;53412.16;;;-146.41;100.00
62995;BME280;49086;52.300;4.850;2022-08-19T05:39:30;53404.19;;;-146.41;100.00
62995;BME280;49086;52.300;4.850;2022-08-19T05:42:47;53380.28;;;-146.41;100.00
62995;BME280;49086;52.300;4.850;2022-08-19T05:45:13;53386.25;;;-146.41;100.00
62995;BME280;49086;52.300;4.850;2022-08-19T05:47:39;53402.19;;;-146.41;100.00
62995;BME280;49086;52.300;4.850;2022-08-19T05:50:15;53420.13;;;-146.41;100.00
62995;BME280;49086;52.300;4.850;2022-08-19T05:52:48;53392.22;;;-146.41;100.00
62995;BME280;49086;52.300;4.850;2022-08-19T05:55:17;53402.19;;;-146.41;100.00
62995;BME280;49086;52.300;4.850;2022-08-19T05:57:46;53398.22;;;-146.41;100.00
62995;BME280;49086;52.300;4.850;2022-08-19T06:00:18;53372.28;;;-146.41;100.00
62995;BME280;49086;52.300;4.850;2022-08-19T06:02:44;53402.19;;;-146.41;100.00
62995;BME280;49086;52.300;4.850;2022-08-19T06:05:11;53368.31;;;-146.41;100.00
62995;BME280;49086;52.300;4.850;2022-08-19T06:07:57;53384.25;;;-146.41;100.00
62995;BME280;49086;52.300;4.850;2022-08-19T06:10:25;53378.28;;;-146.41;100.00
62995;BME280;49086;52.300;4.850;2022-08-19T06:12:57;53390.22;;;-146.41;100.00
62995;BME280;49086;52.300;4.850;2022-08-19T06:15:26;53370.31;;;-146.41;100.00
62995;BME280;49086;52.300;4.850;2022-08-19T06:18:16;53366.31;;;-146.41;100.00
62995;BME280;49086;52.300;4.850;2022-08-19T06:20:53;53386.25;;;-146.41;100.00
62995;BME280;49086;52.300;4.850;2022-08-19T06:23:30;53404.19;;;-146.41;100.00
62995;BME280;49086;52.300;4.850;2022-08-19T06:26:21;53378.28;;;-146.41;100.00
62995;BME280;49086;52.300;4.850;2022-08-19T06:28:48;53406.19;;;-146.41;100.00
62995;BME280;49086;52.300;4.850;2022-08-19T06:31:23;53392.22;;;-146.41;100.00
62995;BME280;49086;52.300;4.850;2022-08-19T06:34:12;53354.34;;;-146.41;100.00
62995;BME280;49086;52.300;4.850;2022-08-19T06:36:41;53360.34;;;-146.41;100.00
62995;BME280;49086;52.300;4.850;2022-08-19T06:39:15;53354.34;;;-146.41;100.00
62995;BME280;49086;52.300;4.850;2022-08-19T06:42:08;53334.41;;;-146.41;100.00
62995;BME280;49086;52.300;4.850;2022-08-19T06:44:40;53330.44;;;-146.41;100.00
62995;BME280;49086;52.300;4.850;2022-08-19T06:47:08;53334.41;;;-146.41;100.00
62995;BME280;49086;52.300;4.850;2022-08-19T06:49:36;53322.47;;;-146.41;100.00
62995;BME280;49086;52.300;4.850;2022-08-19T06:52:01;53304.53;;;-146.41;100.00
62995;BME280;49086;52.300;4.850;2022-08-19T06:54:52;53338.41;;;-146.41;100.00
62995;BME280;49086;52.300;4.850;2022-08-19T06:57:20;53330.44;;;-146.41;100.00
62995;BME280;49086;52.300;4.850;2022-08-19T06:59:52;53362.31;;;-146.41;100.00
62995;BME280;49086;52.300;4.850;2022-08-19T07:02:19;53344.38;;;-146.41;100.00
62995;BME280;49086;52.300;4.850;2022-08-19T07:04:49;53330.44;;;-146.41;100.00
62995;BME280;49086;52.300;4.850;2022-08-19T07:07:37;53316.47;;;-146.41;100.00
62995;BME280;49086;52.300;4.850;2022-08-19T07:10:03;53296.56;;;-146.41;100.00
62995;BME280;49086;52.300;4.850;2022-08-19T07:12:31;53332.44;;;-146.41;100.00
62995;BME280;49086;52.300;4.850;2022-08-19T07:15:19;53266.66;;;-146.41;100.00
62995;BME280;49086;52.300;4.850;2022-08-19T07:18:13;53346.38;;;-146.41;99.81
62995;BME280;49086;52.300;4.850;2022-08-19T07:21:22;53334.41;;;-146.41;100.00
62995;BME280;49086;52.300;4.850;2022-08-19T07:24:09;53306.50;;;-146.41;100.00
62995;BME280;49086;52.300;4.850;2022-08-19T07:26:45;53318.47;;;-146.41;100.00
62995;BME280;49086;52.300;4.850;2022-08-19T07:29:20;53318.47;;;-146.41;99.53
62995;BME280;49086;52.300;4.850;2022-08-19T07:32:28;53298.53;;;-146.41;99.87
62995;BME280;49086;52.300;4.850;2022-08-19T07:34:58;53318.47;;;-146.41;100.00
62995;BME280;49086;52.300;4.850;2022-08-19T07:37:34;53286.59;;;-146.41;100.00
62995;BME280;49086;52.300;4.850;2022-08-19T07:40:07;53330.44;;;-146.41;99.47
62995;BME280;49086;52.300;4.850;2022-08-19T07:42:38;53274.63;;;-146.41;99.00
62995;BME280;49086;52.300;4.850;2022-08-19T07:45:25;53314.50;;;-146.41;98.45
62995;BME280;49086;52.300;4.850;2022-08-19T07:47:57;53312.50;;;-146.41;98.72
62995;BME280;49086;52.300;4.850;2022-08-19T07:50:38;53334.41;;;-146.41;98.85
62995;BME280;49086;52.300;4.850;2022-08-19T07:53:23;53298.53;;;-146.41;98.78
62995;BME280;49086;52.300;4.850;2022-08-19T07:56:21;53266.66;;;-146.41;98.38
62995;BME280;49086;52.300;4.850;2022-08-19T07:59:08;53298.53;;;-146.41;97.67
62995;BME280;49086;52.300;4.850;2022-08-19T08:01:38;53298.53;;;-146.41;97.59
62995;BME280;49086;52.300;4.850;2022-08-19T08:04:13;53284.59;;;-146.41;97.58
62995;BME280;49086;52.300;4.850;2022-08-19T08:07:19;53300.53;;;-146.41;97.12
62995;BME280;49086;52.300;4.850;2022-08-19T08:10:35;53288.56;;;-146.41;94.89
62995;BME280;49086;52.300;4.850;2022-08-19T08:13:03;53294.56;;;-146.41;95.94
62995;BME280;49086;52.300;4.850;2022-08-19T08:15:51;53276.63;;;-146.41;95.51
62995;BME280;49086;52.300;4.850;2022-08-19T08:18:19;53284.59;;;-146.41;96.19
62995;BME280;49086;52.300;4.850;2022-08-19T08:21:30;53294.56;;;-146.41;97.19
62995;BME280;49086;52.300;4.850;2022-08-19T08:24:07;53318.47;;;-146.41;95.65
62995;BME280;49086;52.300;4.850;2022-08-19T08:26:39;53274.63;;;-146.41;94.84
62995;BME280;49086;52.300;4.850;2022-08-19T08:29:06;53288.56;;;-146.41;94.49
62995;BME280;49086;52.300;4.850;2022-08-19T08:31:36;53234.75;;;-146.41;93.24
62995;BME280;49086;52.300;4.850;2022-08-19T08:34:04;53246.72;;;-146.41;92.27
62995;BME280;49086;52.300;4.850;2022-08-19T08:36:30;53270.63;;;-146.41;90.97
62995;BME280;49086;52.300;4.850;2022-08-19T08:39:01;53232.75;;;-146.41;90.74
62995;BME280;49086;52.300;4.850;2022-08-19T08:41:51;53270.63;;;-146.41;90.94
62995;BME280;49086;52.300;4.850;2022-08-19T08:45:12;53264.66;;;-146.41;90.74
62995;BME280;49086;52.300;4.850;2022-08-19T08:47:55;53270.63;;;-146.41;90.06
62995;BME280;49086;52.300;4.850;2022-08-19T08:50:46;53284.59;;;-146.41;89.68
62995;BME280;49086;52.300;4.850;2022-08-19T08:53:36;53306.50;;;-146.41;90.05
62995;BME280;49086;52.300;4.850;2022-08-19T08:56:22;53264.66;;;-146.41;90.54
62995;BME280;49086;52.300;4.850;2022-08-19T08:58:56;53258.69;;;-146.41;90.06
62995;BME280;49086;52.300;4.850;2022-08-19T09:01:23;53258.69;;;-146.41;89.63
62995;BME280;49086;52.300;4.850;2022-08-19T09:04:20;53208.84;;;-146.41;88.33
62995;BME280;49086;52.300;4.850;2022-08-19T09:06:56;53190.91;;;-146.41;86.19
62995;BME280;49086;52.300;4.850;2022-08-19T09:09:42;53210.84;;;-146.41;83.32
62995;BME280;49086;52.300;4.850;2022-08-19T09:12:53;53224.78;;;-146.41;82.08
62995;BME280;49086;52.300;4.850;2022-08-19T09:18:50;53234.75;;;-146.41;82.68
62995;BME280;49086;52.300;4.850;2022-08-19T09:21:27;53220.81;;;-146.41;81.87
62995;BME280;49086;52.300;4.850;2022-08-19T09:24:21;53218.81;;;-146.41;82.52
62995;BME280;49086;52.300;4.850;2022-08-19T09:27:13;53216.81;;;-146.41;81.83
62995;BME280;49086;52.300;4.850;2022-08-19T09:29:44;53268.63;;;-146.41;83.17
62995;BME280;49086;52.300;4.850;2022-08-19T09:32:26;53202.88;;;-146.41;83.07
62995;BME280;49086;52.300;4.850;2022-08-19T09:35:10;53232.75;;;-146.41;80.74
62995;BME280;49086;52.300;4.850;2022-08-19T09:38:06;53182.94;;;-146.41;79.51
62995;BME280;49086;52.300;4.850;2022-08-19T09:40:34;53238.75;;;-146.41;80.29
62995;BME280;49086;52.300;4.850;2022-08-19T09:43:04;53194.88;;;-146.41;79.92
62995;BME280;49086;52.300;4.850;2022-08-19T09:45:31;53248.72;;;-146.41;80.86
62995;BME280;49086;52.300;4.850;2022-08-19T09:48:00;53254.69;;;-146.41;82.21
62995;BME280;49086;52.300;4.850;2022-08-19T09:51:02;53254.69;;;-146.41;82.53
62995;BME280;49086;52.300;4.850;2022-08-19T09:53:39;53290.56;;;-146.41;83.96
62995;BME280;49086;52.300;4.850;2022-08-19T09:56:07;53304.53;;;-146.41;84.85
62995;BME280;49086;52.300;4.850;2022-08-19T09:58:54;53276.63;;;-146.41;85.52
62995;BME280;49086;52.300;4.850;2022-08-19T10:01:35;53242.72;;;-146.41;85.97
62995;BME280;49086;52.300;4.850;2022-08-19T10:04:08;53268.63;;;-146.41;85.94
62995;BME280;49086;52.300;4.850;2022-08-19T10:06:40;53262.66;;;-146.41;85.52
62995;BME280;49086;52.300;4.850;2022-08-19T10:09:30;53258.69;;;-146.41;85.57
62995;BME280;49086;52.300;4.850;2022-08-19T10:11:59;53248.72;;;-146.41;84.97
62995;BME280;49086;52.300;4.850;2022-08-19T10:14:30;53250.69;;;-146.41;84.06
62995;BME280;49086;52.300;4.850;2022-08-19T10:17:41;53212.84;;;-146.41;84.06
62995;BME280;49086;52.300;4.850;2022-08-19T10:20:12;53242.72;;;-146.41;83.78
62995;BME280;49086;52.300;4.850;2022-08-19T10:22:37;53254.69;;;-146.41;84.04
62995;BME280;49086;52.300;4.850;2022-08-19T10:25:08;53226.78;;;-146.41;84.18
62995;BME280;49086;52.300;4.850;2022-08-19T10:27:34;53240.75;;;-146.41;82.69
62995;BME280;49086;52.300;4.850;2022-08-19T10:30:01;53246.72;;;-146.41;83.57
62995;BME280;49086;52.300;4.850;2022-08-19T10:32:29;53254.69;;;-146.41;83.79
62995;BME280;49086;52.300;4.850;2022-08-19T10:35:08;53274.63;;;-146.41;83.30
62995;BME280;49086;52.300;4.850;2022-08-19T10:37:42;53250.69;;;-146.41;83.38
62995;BME280;49086;52.300;4.850;2022-08-19T10:40:12;53300.53;;;-146.41;84.81
62995;BME280;49086;52.300;4.850;2022-08-19T10:42:43;53260.66;;;-146.41;85.02
62995;BME280;49086;52.300;4.850;2022-08-19T10:45:52;53252.69;;;-146.41;85.79
62995;BME280;49086;52.300;4.850;2022-08-19T10:48:43;53276.63;;;-146.41;85.49
62995;BME280;49086;52.300;4.850;2022-08-19T10:51:09;53260.66;;;-146.41;85.64
62995;BME280;49086;52.300;4.850;2022-08-19T10:53:55;53242.72;;;-146.41;85.41
62995;BME280;49086;52.300;4.850;2022-08-19T10:56:52;53248.72;;;-146.41;84.36
62995;BME280;49086;52.300;4.850;2022-08-19T10:59:39;53226.78;;;-146.41;82.92
62995;BME280;49086;52.300;4.850;2022-08-19T11:02:12;53250.69;;;-146.41;83.33
62995;BME280;49086;52.300;4.850;2022-08-19T11:04:43;53172.97;;;-146.41;82.03
62995;BME280;49086;52.300;4.850;2022-08-19T11:07:10;53212.84;;;-146.41;83.08
62995;BME280;49086;52.300;4.850;2022-08-19T11:10:13;53242.72;;;-146.41;81.17
62995;BME280;49086;52.300;4.850;2022-08-19T11:12:47;53230.78;;;-146.41;81.38
62995;BME280;49086;52.300;4.850;2022-08-19T11:15:21;53188.91;;;-146.41;81.17
62995;BME280;49086;52.300;4.850;2022-08-19T11:17:55;53248.72;;;-146.41;80.91
62995;BME280;49086;52.300;4.850;2022-08-19T11:21:14;53220.81;;;-146.41;81.46
62995;BME280;49086;52.300;4.850;2022-08-19T11:23:50;53230.78;;;-146.41;81.56
62995;BME280;49086;52.300;4.850;2022-08-19T11:26:19;53236.75;;;-146.41;82.86
62995;BME280;49086;52.300;4.850;2022-08-19T11:29:29;53230.78;;;-146.41;80.92
62995;BME280;49086;52.300;4.850;2022-08-19T11:32:29;53244.72;;;-146.41;80.56
62995;BME280;49086;52.300;4.850;2022-08-19T11:35:44;53262.66;;;-146.41;79.88
62995;BME280;49086;52.300;4.850;2022-08-19T11:38:39;53206.84;;;-146.41;80.33
62995;BME280;49086;52.300;4.850;2022-08-19T11:41:11;53206.84;;;-146.41;78.83
62995;BME280;49086;52.300;4.850;2022-08-19T11:43:52;53226.78;;;-146.41;78.81
62995;BME280;49086;52.300;4.850;2022-08-19T11:46:38;53184.94;;;-146.41;78.38
62995;BME280;49086;52.300;4.850;2022-08-19T11:49:18;53174.97;;;-146.41;77.07
62995;BME280;49086;52.300;4.850;2022-08-19T11:51:54;53220.81;;;-146.41;77.10
62995;BME280;49086;52.300;4.850;2022-08-19T11:55:09;53180.94;;;-146.41;75.80
62995;BME280;49086;52.300;4.850;2022-08-19T11:57:34;53172.97;;;-146.41;74.82
62995;BME280;49086;52.300;4.850;2022-08-19T12:00:39;53208.84;;;-146.41;75.22
62995;BME280;49086;52.300;4.850;2022-08-19T12:03:11;53212.84;;;-146.41;75.52
62995;BME280;49086;52.300;4.850;2022-08-19T12:05:42;53198.88;;;-146.41;75.81
62995;BME280;49086;52.300;4.850;2022-08-19T12:09:08;53218.81;;;-146.41;76.62
62995;BME280;49086;52.300;4.850;2022-08-19T12:12:20;53186.91;;;-146.41;76.46
62995;BME280;49086;52.300;4.850;2022-08-19T12:14:52;53224.78;;;-146.41;77.97
62995;BME280;49086;52.300;4.850;2022-08-19T12:17:28;53204.84;;;-146.41;77.35
62995;BME280;49086;52.300;4.850;2022-08-19T12:20:14;53208.84;;;-146.41;77.52
62995;BME280;49086;52.300;4.850;2022-08-19T12:23:11;53165.00;;;-146.41;77.87
62995;BME280;49086;52.300;4.850;2022-08-19T12:26:15;53206.84;;;-146.41;78.07
62995;BME280;49086;52.300;4.850;2022-08-19T12:28:47;53194.88;;;-146.41;77.09
62995;BME280;49086;52.300;4.850;2022-08-19T12:31:14;53196.88;;;-146.41;77.26
62995;BME280;49086;52.300;4.850;2022-08-19T12:33:46;53234.75;;;-146.41;76.35
62995;BME280;49086;52.300;4.850;2022-08-19T12:36:31;53216.81;;;-146.41;76.04
62995;BME280;49086;52.300;4.850;2022-08-19T12:39:10;53159.00;;;-146.41;77.10
62995;BME280;49086;52.300;4.850;2022-08-19T12:41:40;53192.91;;;-146.41;77.94
62995;BME280;49086;52.300;4.850;2022-08-19T12:44:42;53188.91;;;-146.41;76.50
62995;BME280;49086;52.300;4.850;2022-08-19T12:47:13;53190.91;;;-146.41;76.33
62995;BME280;49086;52.300;4.850;2022-08-19T12:49:47;53137.09;;;-146.41;75.70
62995;BME280;49086;52.300;4.850;2022-08-19T12:52:25;53153.03;;;-146.41;74.32
62995;BME280;49086;52.300;4.850;2022-08-19T12:55:00;53099.22;;;-146.41;72.71
62995;BME280;49086;52.300;4.850;2022-08-19T12:57:52;53085.25;;;-146.41;70.87
62995;BME280;49086;52.300;4.850;2022-08-19T13:03:50;53190.91;;;-146.41;73.08
62995;BME280;49086;52.300;4.850;2022-08-19T13:06:40;53190.91;;;-146.41;74.68
62995;BME280;49086;52.300;4.850;2022-08-19T13:09:52;53178.94;;;-146.41;75.21
62995;BME280;49086;52.300;4.850;2022-08-19T13:12:21;53163.00;;;-146.41;75.27
62995;BME280;49086;52.300;4.850;2022-08-19T13:14:53;53151.03;;;-146.41;75.33
62995;BME280;49086;52.300;4.850;2022-08-19T13:17:24;53176.94;;;-146.41;76.42
62995;BME280;49086;52.300;4.850;2022-08-19T13:19:54;53196.88;;;-146.41;75.22
62995;BME280;49086;52.300;4.850;2022-08-19T13:22:22;53180.94;;;-146.41;73.96
62995;BME280;49086;52.300;4.850;2022-08-19T13:24:55;53218.81;;;-146.41;74.75
62995;BME280;49086;52.300;4.850;2022-08-19T13:27:24;53194.88;;;-146.41;75.56
62995;BME280;49086;52.300;4.850;2022-08-19T13:29:51;53170.97;;;-146.41;77.08
62995;BME280;49086;52.300;4.850;2022-08-19T13:32:55;53176.94;;;-146.41;76.86
62995;BME280;49086;52.300;4.850;2022-08-19T13:35:57;53226.78;;;-146.41;76.63
62995;BME280;49086;52.300;4.850;2022-08-19T13:38:53;53230.78;;;-146.41;76.93
62995;BME280;49086;52.300;4.850;2022-08-19T13:41:23;53226.78;;;-146.41;77.56
62995;BME280;49086;52.300;4.850;2022-08-19T13:43:56;53214.81;;;-146.41;77.62
62995;BME280;49086;52.300;4.850;2022-08-19T13:46:50;53228.78;;;-146.41;78.05
62995;BME280;49086;52.300;4.850;2022-08-19T13:49:38;53194.88;;;-146.41;77.99
62995;BME280;49086;52.300;4.850;2022-08-19T13:52:08;53159.00;;;-146.41;76.35